Terminal Aerodrome Forecast
Issued by NWS Sioux Falls, SD

Home | Current Version | Previous Version | Text Only | Print | Product List | Glossary On
Versions: 1 2 3 4 5 6 7 8 9 10 11 12
000
FTUS43 KFSD 230500
TAFHON
TAF
KHON 230520Z 2306/2406 14018G28KT P6SM OVC100
     FM231400 15026G38KT P6SM BKN100
     FM232000 17013G25KT P6SM SCT050 BKN100
     FM240100 19010KT P6SM BKN050
     FM240300 31010KT P6SM BKN120=

USA.gov is the U.S. government's official web portal to all federal, state and local government web resources and services.